sensor_id;sensor_type;location;lat;lon;timestamp;pressure;altitude;pressure_sealevel;temperature;humidity
15419;BME280;7808;43.712;23.098;2022-07-23T00:00:12;100581.38;;;21.56;100.00
15419;BME280;7808;43.712;23.098;2022-07-23T00:02:41;100576.63;;;21.60;100.00
15419;BME280;7808;43.712;23.098;2022-07-23T00:05:08;100579.78;;;21.63;99.40
15419;BME280;7808;43.712;23.098;2022-07-23T00:07:36;100582.13;;;21.64;99.16
15419;BME280;7808;43.712;23.098;2022-07-23T00:10:03;100578.63;;;21.64;98.73
15419;BME280;7808;43.712;23.098;2022-07-23T00:12:30;100578.22;;;21.62;98.62
15419;BME280;7808;43.712;23.098;2022-07-23T00:14:57;100569.56;;;21.49;98.92
15419;BME280;7808;43.712;23.098;2022-07-23T00:17:24;100570.31;;;21.39;99.33
15419;BME280;7808;43.712;23.098;2022-07-23T00:19:52;100578.19;;;21.33;99.70
15419;BME280;7808;43.712;23.098;2022-07-23T00:22:20;100566.28;;;21.01;100.00
15419;BME280;7808;43.712;23.098;2022-07-23T00:24:47;100571.00;;;20.90;100.00
15419;BME280;7808;43.712;23.098;2022-07-23T00:27:14;100577.31;;;21.01;100.00
15419;BME280;7808;43.712;23.098;2022-07-23T00:29:41;100573.44;;;21.09;100.00
15419;BME280;7808;43.712;23.098;2022-07-23T00:32:08;100572.66;;;21.05;100.00
15419;BME280;7808;43.712;23.098;2022-07-23T00:34:34;100578.81;;;20.81;100.00
15419;BME280;7808;43.712;23.098;2022-07-23T00:37:03;100580.34;;;20.68;100.00
15419;BME280;7808;43.712;23.098;2022-07-23T00:39:30;100574.88;;;20.75;100.00
15419;BME280;7808;43.712;23.098;2022-07-23T00:41:57;100577.66;;;20.82;100.00
15419;BME280;7808;43.712;23.098;2022-07-23T00:44:25;100571.69;;;20.66;100.00
15419;BME280;7808;43.712;23.098;2022-07-23T00:46:55;100573.25;;;20.60;100.00
15419;BME280;7808;43.712;23.098;2022-07-23T00:49:24;100579.84;;;20.41;100.00
15419;BME280;7808;43.712;23.098;2022-07-23T00:51:52;100578.66;;;20.39;100.00
15419;BME280;7808;43.712;23.098;2022-07-23T00:54:22;100571.88;;;20.25;100.00
15419;BME280;7808;43.712;23.098;2022-07-23T00:56:49;100575.88;;;20.32;100.00
15419;BME280;7808;43.712;23.098;2022-07-23T00:59:16;100579.00;;;20.30;100.00
15419;BME280;7808;43.712;23.098;2022-07-23T01:01:43;100580.16;;;20.25;100.00
15419;BME280;7808;43.712;23.098;2022-07-23T01:04:13;100561.94;;;20.10;100.00
15419;BME280;7808;43.712;23.098;2022-07-23T01:06:40;100576.94;;;20.16;100.00
15419;BME280;7808;43.712;23.098;2022-07-23T01:09:09;100581.16;;;20.00;100.00
15419;BME280;7808;43.712;23.098;2022-07-23T01:11:38;100583.00;;;19.85;100.00
15419;BME280;7808;43.712;23.098;2022-07-23T01:14:09;100576.63;;;19.74;100.00
15419;BME280;7808;43.712;23.098;2022-07-23T01:16:36;100576.72;;;19.88;100.00
15419;BME280;7808;43.712;23.098;2022-07-23T01:19:03;100582.31;;;19.95;100.00
15419;BME280;7808;43.712;23.098;2022-07-23T01:21:34;100578.34;;;19.93;100.00
15419;BME280;7808;43.712;23.098;2022-07-23T01:24:04;100580.75;;;20.01;100.00
15419;BME280;7808;43.712;23.098;2022-07-23T01:26:31;100580.75;;;20.01;100.00
15419;BME280;7808;43.712;23.098;2022-07-23T01:28:58;100577.19;;;19.97;100.00
15419;BME280;7808;43.712;23.098;2022-07-23T01:31:25;100572.91;;;20.03;100.00
15419;BME280;7808;43.712;23.098;2022-07-23T01:33:52;100580.78;;;20.05;100.00
15419;BME280;7808;43.712;23.098;2022-07-23T01:36:20;100580.63;;;19.84;100.00
15419;BME280;7808;43.712;23.098;2022-07-23T01:38:47;100569.56;;;19.73;100.00
15419;BME280;7808;43.712;23.098;2022-07-23T01:41:15;100567.22;;;19.75;100.00
15419;BME280;7808;43.712;23.098;2022-07-23T01:43:42;100574.31;;;19.83;100.00
15419;BME280;7808;43.712;23.098;2022-07-23T01:46:09;100579.25;;;19.60;100.00
15419;BME280;7808;43.712;23.098;2022-07-23T01:48:36;100573.41;;;19.65;100.00
15419;BME280;7808;43.712;23.098;2022-07-23T01:51:03;100572.72;;;19.75;100.00
15419;BME280;7808;43.712;23.098;2022-07-23T01:53:30;100581.81;;;19.83;100.00
15419;BME280;7808;43.712;23.098;2022-07-23T01:55:58;100590.13;;;19.90;100.00
15419;BME280;7808;43.712;23.098;2022-07-23T01:58:26;100583.81;;;19.89;100.00
15419;BME280;7808;43.712;23.098;2022-07-23T02:00:54;100585.47;;;19.97;100.00
15419;BME280;7808;43.712;23.098;2022-07-23T02:03:21;100586.97;;;19.88;100.00
15419;BME280;7808;43.712;23.098;2022-07-23T02:05:48;100587.53;;;19.60;100.00
15419;BME280;7808;43.712;23.098;2022-07-23T02:08:16;100587.53;;;19.60;100.00
15419;BME280;7808;43.712;23.098;2022-07-23T02:10:43;100592.63;;;19.58;100.00
15419;BME280;7808;43.712;23.098;2022-07-23T02:13:11;100588.53;;;19.41;100.00
15419;BME280;7808;43.712;23.098;2022-07-23T02:15:39;100590.41;;;19.34;100.00
15419;BME280;7808;43.712;23.098;2022-07-23T02:18:06;100594.56;;;19.21;100.00
15419;BME280;7808;43.712;23.098;2022-07-23T02:20:33;100594.84;;;19.09;100.00
15419;BME280;7808;43.712;23.098;2022-07-23T02:23:00;100590.09;;;19.06;100.00
15419;BME280;7808;43.712;23.098;2022-07-23T02:25:27;100600.28;;;19.05;100.00
15419;BME280;7808;43.712;23.098;2022-07-23T02:27:54;100600.25;;;19.01;100.00
15419;BME280;7808;43.712;23.098;2022-07-23T02:30:21;100608.50;;;19.01;100.00
15419;BME280;7808;43.712;23.098;2022-07-23T02:32:50;100608.91;;;19.03;100.00
15419;BME280;7808;43.712;23.098;2022-07-23T02:35:17;100607.00;;;19.08;100.00
15419;BME280;7808;43.712;23.098;2022-07-23T02:37:43;100616.81;;;19.09;100.00
15419;BME280;7808;43.712;23.098;2022-07-23T02:40:11;100618.41;;;19.10;100.00
15419;BME280;7808;43.712;23.098;2022-07-23T02:42:38;100616.88;;;19.12;100.00
15419;BME280;7808;43.712;23.098;2022-07-23T02:45:06;100620.91;;;19.22;100.00
15419;BME280;7808;43.712;23.098;2022-07-23T02:47:33;100624.06;;;19.24;100.00
15419;BME280;7808;43.712;23.098;2022-07-23T02:50:01;100622.53;;;19.30;100.00
15419;BME280;7808;43.712;23.098;2022-07-23T02:52:30;100615.53;;;19.36;100.00
15419;BME280;7808;43.712;23.098;2022-07-23T02:54:57;100625.44;;;19.40;100.00
15419;BME280;7808;43.712;23.098;2022-07-23T02:57:24;100626.69;;;19.46;100.00
15419;BME280;7808;43.712;23.098;2022-07-23T02:59:51;100629.88;;;19.52;100.00
15419;BME280;7808;43.712;23.098;2022-07-23T03:02:18;100622.81;;;19.54;100.00
15419;BME280;7808;43.712;23.098;2022-07-23T03:04:45;100630.28;;;19.54;100.00
15419;BME280;7808;43.712;23.098;2022-07-23T03:07:13;100629.16;;;19.58;100.00
15419;BME280;7808;43.712;23.098;2022-07-23T03:09:40;100625.22;;;19.59;100.00
15419;BME280;7808;43.712;23.098;2022-07-23T03:12:08;100638.22;;;19.66;100.00
15419;BME280;7808;43.712;23.098;2022-07-23T03:14:35;100634.66;;;19.22;100.00
15419;BME280;7808;43.712;23.098;2022-07-23T03:17:02;100635.66;;;19.07;100.00
15419;BME280;7808;43.712;23.098;2022-07-23T03:19:29;100635.56;;;18.99;100.00
15419;BME280;7808;43.712;23.098;2022-07-23T03:21:56;100639.19;;;19.07;100.00
15419;BME280;7808;43.712;23.098;2022-07-23T03:24:24;100637.19;;;19.04;100.00
15419;BME280;7808;43.712;23.098;2022-07-23T03:27:11;100639.06;;;18.96;100.00
15419;BME280;7808;43.712;23.098;2022-07-23T03:29:38;100638.66;;;18.94;100.00
15419;BME280;7808;43.712;23.098;2022-07-23T03:32:05;100640.44;;;18.80;100.00
15419;BME280;7808;43.712;23.098;2022-07-23T03:34:32;100634.59;;;18.85;100.00
15419;BME280;7808;43.712;23.098;2022-07-23T03:36:59;100640.13;;;18.88;100.00
15419;BME280;7808;43.712;23.098;2022-07-23T03:39:27;100637.31;;;18.81;100.00
15419;BME280;7808;43.712;23.098;2022-07-23T03:41:54;100636.22;;;18.89;100.00
15419;BME280;7808;43.712;23.098;2022-07-23T03:44:21;100647.31;;;19.00;100.00
15419;BME280;7808;43.712;23.098;2022-07-23T03:46:48;100642.72;;;19.08;100.00
15419;BME280;7808;43.712;23.098;2022-07-23T03:49:15;100643.38;;;18.97;100.00
15419;BME280;7808;43.712;23.098;2022-07-23T03:51:42;100639.47;;;18.98;100.00
15419;BME280;7808;43.712;23.098;2022-07-23T03:54:09;100650.47;;;18.98;100.00
15419;BME280;7808;43.712;23.098;2022-07-23T03:56:37;100647.44;;;19.07;100.00
15419;BME280;7808;43.712;23.098;2022-07-23T03:59:04;100658.94;;;19.20;100.00
15419;BME280;7808;43.712;23.098;2022-07-23T04:01:31;100635.72;;;19.14;100.00
15419;BME280;7808;43.712;23.098;2022-07-23T04:03:59;100651.72;;;19.38;100.00
15419;BME280;7808;43.712;23.098;2022-07-23T04:06:26;100645.19;;;19.53;100.00
15419;BME280;7808;43.712;23.098;2022-07-23T04:08:53;100650.81;;;19.63;100.00
15419;BME280;7808;43.712;23.098;2022-07-23T04:11:20;100657.94;;;19.72;100.00
15419;BME280;7808;43.712;23.098;2022-07-23T04:13:48;100655.31;;;19.86;100.00
15419;BME280;7808;43.712;23.098;2022-07-23T04:16:15;100659.41;;;20.02;100.00
15419;BME280;7808;43.712;23.098;2022-07-23T04:18:42;100661.44;;;20.12;100.00
15419;BME280;7808;43.712;23.098;2022-07-23T04:21:09;100655.59;;;20.21;100.00
15419;BME280;7808;43.712;23.098;2022-07-23T04:23:36;100666.72;;;20.35;100.00
15419;BME280;7808;43.712;23.098;2022-07-23T04:26:03;100669.16;;;20.44;100.00
15419;BME280;7808;43.712;23.098;2022-07-23T04:28:30;100669.19;;;20.51;100.00
15419;BME280;7808;43.712;23.098;2022-07-23T04:30:58;100670.06;;;20.65;100.00
15419;BME280;7808;43.712;23.098;2022-07-23T04:33:25;100667.03;;;20.88;100.00
15419;BME280;7808;43.712;23.098;2022-07-23T04:35:52;100658.47;;;21.07;100.00
15419;BME280;7808;43.712;23.098;2022-07-23T04:38:20;100647.06;;;21.05;100.00
15419;BME280;7808;43.712;23.098;2022-07-23T04:40:47;100667.59;;;21.32;100.00
15419;BME280;7808;43.712;23.098;2022-07-23T04:43:13;100666.09;;;21.59;99.69
15419;BME280;7808;43.712;23.098;2022-07-23T04:45:40;100673.22;;;21.78;96.88
15419;BME280;7808;43.712;23.098;2022-07-23T04:48:09;100676.41;;;22.01;95.50
15419;BME280;7808;43.712;23.098;2022-07-23T04:50:36;100676.78;;;22.21;94.25
15419;BME280;7808;43.712;23.098;2022-07-23T04:53:03;100675.97;;;22.38;90.67
15419;BME280;7808;43.712;23.098;2022-07-23T04:55:30;100677.94;;;22.48;90.46
15419;BME280;7808;43.712;23.098;2022-07-23T04:57:57;100680.69;;;22.69;89.98
15419;BME280;7808;43.712;23.098;2022-07-23T05:00:24;100686.94;;;22.87;88.40
15419;BME280;7808;43.712;23.098;2022-07-23T05:02:50;100692.38;;;23.12;87.70
15419;BME280;7808;43.712;23.098;2022-07-23T05:05:19;100687.19;;;23.25;85.83
15419;BME280;7808;43.712;23.098;2022-07-23T05:07:46;100687.94;;;23.29;85.65
15419;BME280;7808;43.712;23.098;2022-07-23T05:10:13;100695.41;;;23.46;83.44
15419;BME280;7808;43.712;23.098;2022-07-23T05:12:40;100691.25;;;23.75;82.61
15419;BME280;7808;43.712;23.098;2022-07-23T05:15:07;100694.19;;;24.05;79.80
15419;BME280;7808;43.712;23.098;2022-07-23T05:17:34;100696.06;;;24.23;79.44
15419;BME280;7808;43.712;23.098;2022-07-23T05:20:01;100694.31;;;24.39;78.49
15419;BME280;7808;43.712;23.098;2022-07-23T05:22:29;100694.00;;;24.71;77.89
15419;BME280;7808;43.712;23.098;2022-07-23T05:24:56;100690.09;;;25.02;77.97
15419;BME280;7808;43.712;23.098;2022-07-23T05:27:23;100694.69;;;25.16;76.17
15419;BME280;7808;43.712;23.098;2022-07-23T05:29:50;100699.91;;;25.40;74.20
15419;BME280;7808;43.712;23.098;2022-07-23T05:32:17;100698.00;;;25.64;75.11
15419;BME280;7808;43.712;23.098;2022-07-23T05:34:44;100700.88;;;25.84;71.15
15419;BME280;7808;43.712;23.098;2022-07-23T05:37:11;100701.25;;;26.13;71.36
15419;BME280;7808;43.712;23.098;2022-07-23T05:39:39;100692.78;;;26.43;72.50
15419;BME280;7808;43.712;23.098;2022-07-23T05:42:06;100693.03;;;26.71;71.30
15419;BME280;7808;43.712;23.098;2022-07-23T05:44:33;100694.56;;;26.96;70.12
15419;BME280;7808;43.712;23.098;2022-07-23T05:47:00;100688.03;;;27.22;69.76
15419;BME280;7808;43.712;23.098;2022-07-23T05:49:27;100690.75;;;27.45;68.40
15419;BME280;7808;43.712;23.098;2022-07-23T05:51:54;100693.41;;;27.68;66.11
15419;BME280;7808;43.712;23.098;2022-07-23T05:54:21;100681.22;;;27.78;66.13
15419;BME280;7808;43.712;23.098;2022-07-23T05:56:50;100696.56;;;28.02;63.56
15419;BME280;7808;43.712;23.098;2022-07-23T05:59:18;100698.66;;;28.31;62.62
15419;BME280;7808;43.712;23.098;2022-07-23T06:01:45;100702.06;;;28.38;60.00
15419;BME280;7808;43.712;23.098;2022-07-23T06:04:12;100706.25;;;28.59;59.48
15419;BME280;7808;43.712;23.098;2022-07-23T06:06:39;100701.63;;;28.85;58.49
15419;BME280;7808;43.712;23.098;2022-07-23T06:09:06;100706.03;;;29.11;59.64
15419;BME280;7808;43.712;23.098;2022-07-23T06:11:33;100703.56;;;29.42;57.62
15419;BME280;7808;43.712;23.098;2022-07-23T06:14:01;100702.44;;;29.64;55.09
15419;BME280;7808;43.712;23.098;2022-07-23T06:16:28;100707.41;;;29.85;52.76
15419;BME280;7808;43.712;23.098;2022-07-23T06:18:55;100700.00;;;29.91;50.13
15419;BME280;7808;43.712;23.098;2022-07-23T06:21:22;100696.72;;;30.18;49.29
15419;BME280;7808;43.712;23.098;2022-07-23T06:23:49;100706.91;;;30.25;48.12
15419;BME280;7808;43.712;23.098;2022-07-23T06:26:16;100699.59;;;30.40;47.30
15419;BME280;7808;43.712;23.098;2022-07-23T06:28:43;100694.84;;;30.03;47.06
15419;BME280;7808;43.712;23.098;2022-07-23T06:31:11;100691.19;;;30.40;50.08
15419;BME280;7808;43.712;23.098;2022-07-23T06:33:38;100696.69;;;30.43;47.71
15419;BME280;7808;43.712;23.098;2022-07-23T06:36:05;100698.38;;;30.63;45.29
15419;BME280;7808;43.712;23.098;2022-07-23T06:38:32;100699.19;;;30.85;44.59
15419;BME280;7808;43.712;23.098;2022-07-23T06:40:59;100692.94;;;30.81;44.00
15419;BME280;7808;43.712;23.098;2022-07-23T06:43:26;100699.75;;;30.92;46.27
15419;BME280;7808;43.712;23.098;2022-07-23T06:45:53;100689.97;;;30.97;44.32
15419;BME280;7808;43.712;23.098;2022-07-23T06:48:21;100705.38;;;30.80;44.11
15419;BME280;7808;43.712;23.098;2022-07-23T06:50:49;100687.09;;;31.09;45.75
15419;BME280;7808;43.712;23.098;2022-07-23T06:53:17;100694.69;;;31.31;47.57
15419;BME280;7808;43.712;23.098;2022-07-23T06:55:44;100685.19;;;31.59;44.83
15419;BME280;7808;43.712;23.098;2022-07-23T06:58:11;100675.59;;;31.69;42.54
15419;BME280;7808;43.712;23.098;2022-07-23T07:00:39;100682.63;;;31.82;45.37
15419;BME280;7808;43.712;23.098;2022-07-23T07:03:06;100690.69;;;32.20;45.06
15419;BME280;7808;43.712;23.098;2022-07-23T07:05:34;100672.00;;;32.44;40.29
15419;BME280;7808;43.712;23.098;2022-07-23T07:08:01;100691.66;;;32.63;38.34
15419;BME280;7808;43.712;23.098;2022-07-23T07:10:29;100695.28;;;32.54;37.08
15419;BME280;7808;43.712;23.098;2022-07-23T07:12:55;100694.66;;;32.59;36.68
15419;BME280;7808;43.712;23.098;2022-07-23T07:15:22;100699.13;;;32.38;37.09
15419;BME280;7808;43.712;23.098;2022-07-23T07:17:49;100688.06;;;32.44;37.17
15419;BME280;7808;43.712;23.098;2022-07-23T07:20:17;100693.25;;;32.55;37.18
15419;BME280;7808;43.712;23.098;2022-07-23T07:22:45;100693.88;;;32.59;36.74
15419;BME280;7808;43.712;23.098;2022-07-23T07:25:12;100694.63;;;32.68;35.38
15419;BME280;7808;43.712;23.098;2022-07-23T07:27:39;100681.69;;;32.71;35.61
15419;BME280;7808;43.712;23.098;2022-07-23T07:30:07;100695.28;;;32.81;36.82
15419;BME280;7808;43.712;23.098;2022-07-23T07:32:34;100688.25;;;32.68;35.26
15419;BME280;7808;43.712;23.098;2022-07-23T07:35:02;100691.22;;;32.73;35.66
15419;BME280;7808;43.712;23.098;2022-07-23T07:37:29;100693.69;;;33.07;35.93
15419;BME280;7808;43.712;23.098;2022-07-23T07:39:57;100700.53;;;32.97;34.58
15419;BME280;7808;43.712;23.098;2022-07-23T07:42:24;100691.22;;;32.64;34.91
15419;BME280;7808;43.712;23.098;2022-07-23T07:44:51;100699.16;;;32.93;35.92
15419;BME280;7808;43.712;23.098;2022-07-23T07:47:18;100696.50;;;32.98;36.03
15419;BME280;7808;43.712;23.098;2022-07-23T07:49:45;100693.03;;;32.94;37.04
15419;BME280;7808;43.712;23.098;2022-07-23T07:52:12;100694.59;;;33.14;35.34
15419;BME280;7808;43.712;23.098;2022-07-23T07:54:39;100688.97;;;33.14;36.31
15419;BME280;7808;43.712;23.098;2022-07-23T07:57:07;100680.19;;;33.30;35.01
15419;BME280;7808;43.712;23.098;2022-07-23T07:59:34;100689.72;;;33.32;35.68
15419;BME280;7808;43.712;23.098;2022-07-23T08:02:01;100685.25;;;33.58;34.46
15419;BME280;7808;43.712;23.098;2022-07-23T08:04:28;100690.09;;;33.58;34.88
15419;BME280;7808;43.712;23.098;2022-07-23T08:06:55;100688.88;;;33.59;33.78
15419;BME280;7808;43.712;23.098;2022-07-23T08:09:22;100691.59;;;33.77;34.30
15419;BME280;7808;43.712;23.098;2022-07-23T08:11:49;100681.53;;;33.85;34.93
15419;BME280;7808;43.712;23.098;2022-07-23T08:14:18;100686.78;;;34.01;34.86
15419;BME280;7808;43.712;23.098;2022-07-23T08:16:45;100677.22;;;34.08;34.59
15419;BME280;7808;43.712;23.098;2022-07-23T08:19:12;100678.16;;;34.05;34.43
15419;BME280;7808;43.712;23.098;2022-07-23T08:21:39;100679.63;;;33.91;33.55
15419;BME280;7808;43.712;23.098;2022-07-23T08:24:06;100681.88;;;33.78;34.45
15419;BME280;7808;43.712;23.098;2022-07-23T08:26:33;100678.06;;;33.90;34.69
15419;BME280;7808;43.712;23.098;2022-07-23T08:29:00;100676.41;;;33.84;34.44
15419;BME280;7808;43.712;23.098;2022-07-23T08:31:28;100667.72;;;33.96;34.70
15419;BME280;7808;43.712;23.098;2022-07-23T08:33:55;100679.75;;;33.97;34.51
15419;BME280;7808;43.712;23.098;2022-07-23T08:36:22;100674.41;;;34.08;35.35
15419;BME280;7808;43.712;23.098;2022-07-23T08:38:49;100681.22;;;34.40;34.61
15419;BME280;7808;43.712;23.098;2022-07-23T08:41:16;100672.09;;;34.45;34.76
15419;BME280;7808;43.712;23.098;2022-07-23T08:43:44;100676.78;;;34.48;34.53
15419;BME280;7808;43.712;23.098;2022-07-23T08:46:12;100673.22;;;34.23;33.91
15419;BME280;7808;43.712;23.098;2022-07-23T08:48:41;100683.16;;;34.48;33.17
15419;BME280;7808;43.712;23.098;2022-07-23T08:51:08;100672.34;;;34.70;33.50
15419;BME280;7808;43.712;23.098;2022-07-23T08:53:36;100673.25;;;34.91;33.62
15419;BME280;7808;43.712;23.098;2022-07-23T08:56:04;100673.94;;;34.86;33.63
15419;BME280;7808;43.712;23.098;2022-07-23T08:58:31;100669.06;;;34.86;34.00
15419;BME280;7808;43.712;23.098;2022-07-23T09:00:59;100674.66;;;35.10;33.71
15419;BME280;7808;43.712;23.098;2022-07-23T09:03:27;100668.19;;;35.39;33.13
15419;BME280;7808;43.712;23.098;2022-07-23T09:05:57;100666.84;;;35.20;33.29
15419;BME280;7808;43.712;23.098;2022-07-23T09:08:25;100667.34;;;35.18;33.13
15419;BME280;7808;43.712;23.098;2022-07-23T09:10:54;100665.00;;;35.17;34.38
15419;BME280;7808;43.712;23.098;2022-07-23T09:13:27;100675.03;;;35.03;34.62
15419;BME280;7808;43.712;23.098;2022-07-23T09:15:57;100672.75;;;35.36;32.63
15419;BME280;7808;43.712;23.098;2022-07-23T09:18:42;100672.75;;;35.36;32.37
15419;BME280;7808;43.712;23.098;2022-07-23T09:21:22;100639.94;;;35.33;35.08
15419;BME280;7808;43.712;23.098;2022-07-23T09:23:55;100660.88;;;35.61;34.37
15419;BME280;7808;43.712;23.098;2022-07-23T09:26:32;100654.84;;;35.69;32.32
15419;BME280;7808;43.712;23.098;2022-07-23T09:29:07;100653.28;;;35.68;31.03
15419;BME280;7808;43.712;23.098;2022-07-23T09:31:49;100659.38;;;35.81;32.39
15419;BME280;7808;43.712;23.098;2022-07-23T09:34:19;100663.88;;;35.93;32.15
15419;BME280;7808;43.712;23.098;2022-07-23T09:36:48;100652.47;;;35.82;29.81
15419;BME280;7808;43.712;23.098;2022-07-23T09:39:22;100648.22;;;35.72;30.02
15419;BME280;7808;43.712;23.098;2022-07-23T09:41:51;100653.72;;;35.60;31.91
15419;BME280;7808;43.712;23.098;2022-07-23T09:44:19;100644.19;;;35.78;31.01
15419;BME280;7808;43.712;23.098;2022-07-23T09:46:48;100648.22;;;35.72;31.56
15419;BME280;7808;43.712;23.098;2022-07-23T09:49:17;100648.72;;;35.70;31.71
15419;BME280;7808;43.712;23.098;2022-07-23T09:51:50;100634.66;;;35.55;32.13
15419;BME280;7808;43.712;23.098;2022-07-23T09:54:29;100645.41;;;35.92;32.43
15419;BME280;7808;43.712;23.098;2022-07-23T09:56:59;100639.31;;;36.13;31.67
15419;BME280;7808;43.712;23.098;2022-07-23T09:59:28;100644.44;;;36.15;32.49
15419;BME280;7808;43.712;23.098;2022-07-23T10:01:57;100634.47;;;36.40;30.57
15419;BME280;7808;43.712;23.098;2022-07-23T10:04:26;100638.59;;;36.39;31.04
15419;BME280;7808;43.712;23.098;2022-07-23T10:06:56;100630.16;;;36.44;31.44
15419;BME280;7808;43.712;23.098;2022-07-23T10:09:28;100625.75;;;36.63;30.77
15419;BME280;7808;43.712;23.098;2022-07-23T10:11:57;100629.59;;;36.60;30.24
15419;BME280;7808;43.712;23.098;2022-07-23T10:14:32;100619.50;;;36.79;30.59
15419;BME280;7808;43.712;23.098;2022-07-23T10:17:01;100621.56;;;37.05;31.52
15419;BME280;7808;43.712;23.098;2022-07-23T10:19:28;100615.59;;;36.97;30.09
15419;BME280;7808;43.712;23.098;2022-07-23T10:21:58;100611.69;;;37.26;29.38
15419;BME280;7808;43.712;23.098;2022-07-23T10:24:40;100618.84;;;37.21;27.44
15419;BME280;7808;43.712;23.098;2022-07-23T10:27:22;100606.22;;;37.48;29.52
15419;BME280;7808;43.712;23.098;2022-07-23T10:29:58;100587.66;;;37.47;29.02
15419;BME280;7808;43.712;23.098;2022-07-23T10:32:37;100602.09;;;37.49;28.18
15419;BME280;7808;43.712;23.098;2022-07-23T10:35:11;100594.63;;;37.46;28.95
15419;BME280;7808;43.712;23.098;2022-07-23T10:37:47;100602.06;;;37.43;29.36
15419;BME280;7808;43.712;23.098;2022-07-23T10:40:17;100593.50;;;37.38;29.03
15419;BME280;7808;43.712;23.098;2022-07-23T10:42:44;100590.84;;;37.60;27.22
15419;BME280;7808;43.712;23.098;2022-07-23T10:45:29;100589.41;;;37.81;28.40
15419;BME280;7808;43.712;23.098;2022-07-23T10:48:14;100585.16;;;38.02;28.59
15419;BME280;7808;43.712;23.098;2022-07-23T10:50:42;100579.09;;;38.32;27.04
15419;BME280;7808;43.712;23.098;2022-07-23T10:53:16;100578.22;;;38.09;27.99
15419;BME280;7808;43.712;23.098;2022-07-23T10:55:46;100575.16;;;38.18;27.75
15419;BME280;7808;43.712;23.098;2022-07-23T10:58:19;100568.25;;;38.30;29.05
15419;BME280;7808;43.712;23.098;2022-07-23T11:00:46;100568.19;;;38.13;28.29
15419;BME280;7808;43.712;23.098;2022-07-23T11:03:31;100570.69;;;38.00;26.90
15419;BME280;7808;43.712;23.098;2022-07-23T11:06:01;100563.88;;;37.70;27.80
15419;BME280;7808;43.712;23.098;2022-07-23T11:08:30;100553.94;;;37.91;28.91
15419;BME280;7808;43.712;23.098;2022-07-23T11:11:09;100560.75;;;38.27;27.67
15419;BME280;7808;43.712;23.098;2022-07-23T11:13:47;100556.88;;;38.19;27.25
15419;BME280;7808;43.712;23.098;2022-07-23T11:16:23;100545.38;;;38.61;26.86
15419;BME280;7808;43.712;23.098;2022-07-23T11:19:06;100544.34;;;38.81;25.59
15419;BME280;7808;43.712;23.098;2022-07-23T11:21:50;100541.25;;;39.12;26.12
15419;BME280;7808;43.712;23.098;2022-07-23T11:24:20;100534.78;;;39.23;25.67
15419;BME280;7808;43.712;23.098;2022-07-23T11:29:47;100529.91;;;39.01;25.00
15419;BME280;7808;43.712;23.098;2022-07-23T11:32:31;100523.97;;;39.10;24.03
15419;BME280;7808;43.712;23.098;2022-07-23T11:35:01;100521.63;;;39.31;25.93
15419;BME280;7808;43.712;23.098;2022-07-23T11:37:32;100517.91;;;39.64;26.49
15419;BME280;7808;43.712;23.098;2022-07-23T11:40:04;100512.19;;;39.69;25.94
15419;BME280;7808;43.712;23.098;2022-07-23T11:42:34;100514.84;;;39.45;24.74
15419;BME280;7808;43.712;23.098;2022-07-23T11:45:02;100504.50;;;39.53;24.33
15419;BME280;7808;43.712;23.098;2022-07-23T11:47:29;100505.28;;;39.54;22.78
15419;BME280;7808;43.712;23.098;2022-07-23T11:50:01;100515.31;;;39.55;23.41
15419;BME280;7808;43.712;23.098;2022-07-23T11:52:29;100503.97;;;39.55;23.19
15419;BME280;7808;43.712;23.098;2022-07-23T11:54:58;100512.25;;;39.53;23.59
15419;BME280;7808;43.712;23.098;2022-07-23T11:57:28;100506.88;;;39.44;23.97
15419;BME280;7808;43.712;23.098;2022-07-23T11:59:57;100504.78;;;39.50;25.05
15419;BME280;7808;43.712;23.098;2022-07-23T12:02:24;100506.81;;;39.66;22.66
15419;BME280;7808;43.712;23.098;2022-07-23T12:04:53;100496.16;;;39.77;21.59
15419;BME280;7808;43.712;23.098;2022-07-23T12:07:28;100506.81;;;39.66;22.06
15419;BME280;7808;43.712;23.098;2022-07-23T12:09:57;100496.16;;;39.77;24.15
15419;BME280;7808;43.712;23.098;2022-07-23T12:12:24;100487.63;;;39.83;23.30
15419;BME280;7808;43.712;23.098;2022-07-23T12:14:54;100482.63;;;40.00;22.14
15419;BME280;7808;43.712;23.098;2022-07-23T12:17:27;100489.19;;;39.78;20.76
15419;BME280;7808;43.712;23.098;2022-07-23T12:19:54;100480.16;;;39.74;23.12
15419;BME280;7808;43.712;23.098;2022-07-23T12:22:23;100478.53;;;39.90;22.13
15419;BME280;7808;43.712;23.098;2022-07-23T12:24:57;100483.91;;;39.99;21.80
15419;BME280;7808;43.712;23.098;2022-07-23T12:27:24;100473.31;;;39.99;21.80
15419;BME280;7808;43.712;23.098;2022-07-23T12:29:53;100459.47;;;39.85;22.39
15419;BME280;7808;43.712;23.098;2022-07-23T12:32:21;100471.00;;;39.98;21.01
15419;BME280;7808;43.712;23.098;2022-07-23T12:34:50;100462.09;;;40.18;21.33
15419;BME280;7808;43.712;23.098;2022-07-23T12:37:31;100458.06;;;40.38;21.29
15419;BME280;7808;43.712;23.098;2022-07-23T12:39:58;100463.47;;;40.41;21.54
15419;BME280;7808;43.712;23.098;2022-07-23T12:42:44;100458.78;;;40.49;20.87
15419;BME280;7808;43.712;23.098;2022-07-23T12:45:13;100448.63;;;40.24;21.25
15419;BME280;7808;43.712;23.098;2022-07-23T12:48:02;100447.28;;;40.31;21.22
15419;BME280;7808;43.712;23.098;2022-07-23T12:50:58;100452.59;;;40.45;20.91
15419;BME280;7808;43.712;23.098;2022-07-23T12:53:28;100447.06;;;40.58;20.70
15419;BME280;7808;43.712;23.098;2022-07-23T12:56:01;100446.25;;;40.63;21.91